sensor_id;sensor_type;location;lat;lon;timestamp;P1;durP1;ratioP1;P2;durP2;ratioP2
79677;SDS011;69145;45.544;10.214;2023-04-24T00:01:12;7.50;;;5.37;;
79677;SDS011;69145;45.544;10.214;2023-04-24T00:03:38;9.18;;;5.68;;
79677;SDS011;69145;45.544;10.214;2023-04-24T00:06:04;7.25;;;5.60;;
79677;SDS011;69145;45.544;10.214;2023-04-24T00:08:30;7.32;;;5.28;;
79677;SDS011;69145;45.544;10.214;2023-04-24T00:10:55;8.85;;;5.70;;
79677;SDS011;69145;45.544;10.214;2023-04-24T00:13:21;8.35;;;5.35;;
79677;SDS011;69145;45.544;10.214;2023-04-24T00:15:46;7.60;;;5.13;;
79677;SDS011;69145;45.544;10.214;2023-04-24T00:18:12;8.38;;;5.10;;
79677;SDS011;69145;45.544;10.214;2023-04-24T00:20:37;7.72;;;5.45;;
79677;SDS011;69145;45.544;10.214;2023-04-24T00:23:03;8.87;;;5.10;;
79677;SDS011;69145;45.544;10.214;2023-04-24T00:25:28;7.53;;;5.18;;
79677;SDS011;69145;45.544;10.214;2023-04-24T00:27:53;7.07;;;4.83;;
79677;SDS011;69145;45.544;10.214;2023-04-24T00:30:19;6.87;;;4.67;;
79677;SDS011;69145;45.544;10.214;2023-04-24T00:32:44;7.90;;;4.65;;
79677;SDS011;69145;45.544;10.214;2023-04-24T00:35:10;7.03;;;5.40;;
79677;SDS011;69145;45.544;10.214;2023-04-24T00:37:35;7.30;;;5.35;;
79677;SDS011;69145;45.544;10.214;2023-04-24T00:40:01;7.93;;;5.30;;
79677;SDS011;69145;45.544;10.214;2023-04-24T00:42:26;7.15;;;5.32;;
79677;SDS011;69145;45.544;10.214;2023-04-24T00:44:52;6.22;;;4.75;;
79677;SDS011;69145;45.544;10.214;2023-04-24T00:47:18;7.80;;;5.38;;
79677;SDS011;69145;45.544;10.214;2023-04-24T00:49:44;7.07;;;5.60;;
79677;SDS011;69145;45.544;10.214;2023-04-24T00:52:09;8.60;;;5.50;;
79677;SDS011;69145;45.544;10.214;2023-04-24T00:54:35;8.10;;;5.65;;
79677;SDS011;69145;45.544;10.214;2023-04-24T00:57:02;8.52;;;6.15;;
79677;SDS011;69145;45.544;10.214;2023-04-24T00:59:28;8.13;;;5.88;;
79677;SDS011;69145;45.544;10.214;2023-04-24T01:01:53;8.48;;;6.03;;
79677;SDS011;69145;45.544;10.214;2023-04-24T01:04:20;8.82;;;5.95;;
79677;SDS011;69145;45.544;10.214;2023-04-24T01:06:45;7.28;;;5.88;;
79677;SDS011;69145;45.544;10.214;2023-04-24T01:09:12;7.82;;;6.22;;
79677;SDS011;69145;45.544;10.214;2023-04-24T01:11:39;8.75;;;6.32;;
79677;SDS011;69145;45.544;10.214;2023-04-24T01:14:07;8.00;;;6.38;;
79677;SDS011;69145;45.544;10.214;2023-04-24T01:16:33;8.53;;;6.13;;
79677;SDS011;69145;45.544;10.214;2023-04-24T01:18:58;10.47;;;6.77;;
79677;SDS011;69145;45.544;10.214;2023-04-24T01:21:23;8.83;;;6.27;;
79677;SDS011;69145;45.544;10.214;2023-04-24T01:23:54;8.88;;;6.38;;
79677;SDS011;69145;45.544;10.214;2023-04-24T01:26:20;10.55;;;6.80;;
79677;SDS011;69145;45.544;10.214;2023-04-24T01:28:46;8.00;;;6.55;;
79677;SDS011;69145;45.544;10.214;2023-04-24T01:31:12;8.57;;;6.68;;
79677;SDS011;69145;45.544;10.214;2023-04-24T01:33:38;9.68;;;6.60;;
79677;SDS011;69145;45.544;10.214;2023-04-24T01:36:04;9.23;;;7.20;;
79677;SDS011;69145;45.544;10.214;2023-04-24T01:38:29;10.60;;;6.93;;
79677;SDS011;69145;45.544;10.214;2023-04-24T01:40:55;8.83;;;6.87;;
79677;SDS011;69145;45.544;10.214;2023-04-24T01:43:20;9.43;;;6.90;;
79677;SDS011;69145;45.544;10.214;2023-04-24T01:45:46;9.75;;;6.82;;
79677;SDS011;69145;45.544;10.214;2023-04-24T01:48:12;9.83;;;6.77;;
79677;SDS011;69145;45.544;10.214;2023-04-24T01:50:37;9.55;;;7.32;;
79677;SDS011;69145;45.544;10.214;2023-04-24T01:53:03;9.55;;;7.68;;
79677;SDS011;69145;45.544;10.214;2023-04-24T01:55:29;9.85;;;6.78;;
79677;SDS011;69145;45.544;10.214;2023-04-24T01:57:55;8.02;;;6.30;;
79677;SDS011;69145;45.544;10.214;2023-04-24T02:00:21;8.90;;;6.30;;
79677;SDS011;69145;45.544;10.214;2023-04-24T02:02:47;9.30;;;6.50;;
79677;SDS011;69145;45.544;10.214;2023-04-24T02:05:12;10.20;;;7.83;;
79677;SDS011;69145;45.544;10.214;2023-04-24T02:07:37;9.25;;;7.22;;
79677;SDS011;69145;45.544;10.214;2023-04-24T02:10:03;9.57;;;6.40;;
79677;SDS011;69145;45.544;10.214;2023-04-24T02:12:29;9.80;;;6.55;;
79677;SDS011;69145;45.544;10.214;2023-04-24T02:14:54;8.50;;;7.10;;
79677;SDS011;69145;45.544;10.214;2023-04-24T02:17:20;8.77;;;7.07;;
79677;SDS011;69145;45.544;10.214;2023-04-24T02:19:45;9.40;;;6.47;;
79677;SDS011;69145;45.544;10.214;2023-04-24T02:22:11;10.20;;;6.60;;
79677;SDS011;69145;45.544;10.214;2023-04-24T02:24:37;9.27;;;6.95;;
79677;SDS011;69145;45.544;10.214;2023-04-24T02:27:03;8.18;;;6.43;;
79677;SDS011;69145;45.544;10.214;2023-04-24T02:29:28;12.43;;;6.40;;
79677;SDS011;69145;45.544;10.214;2023-04-24T02:31:53;10.35;;;6.85;;
79677;SDS011;69145;45.544;10.214;2023-04-24T02:34:19;9.03;;;6.17;;
79677;SDS011;69145;45.544;10.214;2023-04-24T02:36:44;9.35;;;6.65;;
79677;SDS011;69145;45.544;10.214;2023-04-24T02:39:09;8.48;;;6.28;;
79677;SDS011;69145;45.544;10.214;2023-04-24T02:41:35;8.60;;;6.18;;
79677;SDS011;69145;45.544;10.214;2023-04-24T02:44:00;9.23;;;6.45;;
79677;SDS011;69145;45.544;10.214;2023-04-24T02:46:26;8.50;;;6.03;;
79677;SDS011;69145;45.544;10.214;2023-04-24T02:48:51;10.02;;;6.57;;
79677;SDS011;69145;45.544;10.214;2023-04-24T02:51:16;8.38;;;6.30;;
79677;SDS011;69145;45.544;10.214;2023-04-24T02:53:42;11.82;;;7.25;;
79677;SDS011;69145;45.544;10.214;2023-04-24T02:56:08;8.48;;;6.40;;
79677;SDS011;69145;45.544;10.214;2023-04-24T02:58:33;8.37;;;6.40;;
79677;SDS011;69145;45.544;10.214;2023-04-24T03:00:58;9.55;;;6.05;;
79677;SDS011;69145;45.544;10.214;2023-04-24T03:03:25;8.68;;;6.57;;
79677;SDS011;69145;45.544;10.214;2023-04-24T03:05:50;9.70;;;6.45;;
79677;SDS011;69145;45.544;10.214;2023-04-24T03:08:16;8.15;;;5.88;;
79677;SDS011;69145;45.544;10.214;2023-04-24T03:10:41;9.50;;;5.95;;
79677;SDS011;69145;45.544;10.214;2023-04-24T03:13:06;8.20;;;5.93;;
79677;SDS011;69145;45.544;10.214;2023-04-24T03:15:32;10.05;;;7.10;;
79677;SDS011;69145;45.544;10.214;2023-04-24T03:17:57;10.07;;;6.45;;
79677;SDS011;69145;45.544;10.214;2023-04-24T03:20:23;8.40;;;6.25;;
79677;SDS011;69145;45.544;10.214;2023-04-24T03:22:48;9.15;;;6.50;;
79677;SDS011;69145;45.544;10.214;2023-04-24T03:25:14;10.17;;;7.07;;
79677;SDS011;69145;45.544;10.214;2023-04-24T03:27:39;9.13;;;6.63;;
79677;SDS011;69145;45.544;10.214;2023-04-24T03:30:05;9.37;;;6.57;;
79677;SDS011;69145;45.544;10.214;2023-04-24T03:32:32;10.25;;;6.72;;
79677;SDS011;69145;45.544;10.214;2023-04-24T03:34:57;8.85;;;6.75;;
79677;SDS011;69145;45.544;10.214;2023-04-24T03:37:23;9.10;;;6.85;;
79677;SDS011;69145;45.544;10.214;2023-04-24T03:39:48;7.93;;;6.18;;
79677;SDS011;69145;45.544;10.214;2023-04-24T03:42:13;8.33;;;6.40;;
79677;SDS011;69145;45.544;10.214;2023-04-24T03:44:39;9.43;;;6.83;;
79677;SDS011;69145;45.544;10.214;2023-04-24T03:47:04;9.37;;;6.40;;
79677;SDS011;69145;45.544;10.214;2023-04-24T03:49:29;9.27;;;6.72;;
79677;SDS011;69145;45.544;10.214;2023-04-24T03:51:55;11.83;;;6.47;;
79677;SDS011;69145;45.544;10.214;2023-04-24T03:54:20;9.87;;;6.67;;
79677;SDS011;69145;45.544;10.214;2023-04-24T03:56:45;9.32;;;7.10;;
79677;SDS011;69145;45.544;10.214;2023-04-24T03:59:11;10.25;;;6.82;;
79677;SDS011;69145;45.544;10.214;2023-04-24T04:01:36;10.93;;;7.00;;
79677;SDS011;69145;45.544;10.214;2023-04-24T04:04:11;11.13;;;7.15;;
79677;SDS011;69145;45.544;10.214;2023-04-24T04:06:36;10.35;;;6.72;;
79677;SDS011;69145;45.544;10.214;2023-04-24T04:09:02;8.75;;;6.80;;
79677;SDS011;69145;45.544;10.214;2023-04-24T04:11:28;10.05;;;6.85;;
79677;SDS011;69145;45.544;10.214;2023-04-24T04:13:53;10.13;;;6.47;;
79677;SDS011;69145;45.544;10.214;2023-04-24T04:16:19;10.10;;;6.97;;
79677;SDS011;69145;45.544;10.214;2023-04-24T04:18:45;11.68;;;7.20;;
79677;SDS011;69145;45.544;10.214;2023-04-24T04:21:10;9.73;;;6.80;;
79677;SDS011;69145;45.544;10.214;2023-04-24T04:23:36;10.23;;;7.18;;
79677;SDS011;69145;45.544;10.214;2023-04-24T04:26:02;9.07;;;6.78;;
79677;SDS011;69145;45.544;10.214;2023-04-24T04:28:28;9.35;;;6.85;;
79677;SDS011;69145;45.544;10.214;2023-04-24T04:30:55;8.60;;;6.85;;
79677;SDS011;69145;45.544;10.214;2023-04-24T04:33:22;10.18;;;7.43;;
79677;SDS011;69145;45.544;10.214;2023-04-24T04:35:48;9.90;;;7.40;;
79677;SDS011;69145;45.544;10.214;2023-04-24T04:38:14;10.57;;;6.88;;
79677;SDS011;69145;45.544;10.214;2023-04-24T04:40:41;11.88;;;7.45;;
79677;SDS011;69145;45.544;10.214;2023-04-24T04:43:07;10.48;;;7.05;;
79677;SDS011;69145;45.544;10.214;2023-04-24T04:45:32;9.43;;;6.72;;
79677;SDS011;69145;45.544;10.214;2023-04-24T04:47:59;11.15;;;7.90;;
79677;SDS011;69145;45.544;10.214;2023-04-24T04:50:28;9.80;;;8.00;;
79677;SDS011;69145;45.544;10.214;2023-04-24T04:52:54;10.38;;;7.13;;
79677;SDS011;69145;45.544;10.214;2023-04-24T04:55:19;9.40;;;7.25;;
79677;SDS011;69145;45.544;10.214;2023-04-24T04:57:45;9.75;;;7.38;;
79677;SDS011;69145;45.544;10.214;2023-04-24T05:00:11;10.00;;;7.45;;
79677;SDS011;69145;45.544;10.214;2023-04-24T05:02:37;10.23;;;7.38;;
79677;SDS011;69145;45.544;10.214;2023-04-24T05:05:03;10.13;;;7.18;;
79677;SDS011;69145;45.544;10.214;2023-04-24T05:07:28;9.27;;;7.18;;
79677;SDS011;69145;45.544;10.214;2023-04-24T05:09:54;10.85;;;7.70;;
79677;SDS011;69145;45.544;10.214;2023-04-24T05:12:19;10.70;;;8.30;;
79677;SDS011;69145;45.544;10.214;2023-04-24T05:14:44;10.63;;;7.03;;
79677;SDS011;69145;45.544;10.214;2023-04-24T05:17:10;11.27;;;7.33;;
79677;SDS011;69145;45.544;10.214;2023-04-24T05:19:36;10.32;;;8.02;;
79677;SDS011;69145;45.544;10.214;2023-04-24T05:22:03;11.57;;;7.22;;
79677;SDS011;69145;45.544;10.214;2023-04-24T05:24:30;10.55;;;7.35;;
79677;SDS011;69145;45.544;10.214;2023-04-24T05:26:55;8.32;;;6.45;;
79677;SDS011;69145;45.544;10.214;2023-04-24T05:29:21;9.23;;;5.85;;
79677;SDS011;69145;45.544;10.214;2023-04-24T05:31:47;7.97;;;5.63;;
79677;SDS011;69145;45.544;10.214;2023-04-24T05:34:12;8.47;;;5.97;;
79677;SDS011;69145;45.544;10.214;2023-04-24T05:36:39;8.63;;;5.50;;
79677;SDS011;69145;45.544;10.214;2023-04-24T05:39:04;8.40;;;5.87;;
79677;SDS011;69145;45.544;10.214;2023-04-24T05:41:30;7.55;;;5.18;;
79677;SDS011;69145;45.544;10.214;2023-04-24T05:43:57;8.45;;;5.45;;
79677;SDS011;69145;45.544;10.214;2023-04-24T05:46:23;6.90;;;5.53;;
79677;SDS011;69145;45.544;10.214;2023-04-24T05:48:48;8.07;;;5.15;;
79677;SDS011;69145;45.544;10.214;2023-04-24T05:51:13;7.23;;;4.67;;
79677;SDS011;69145;45.544;10.214;2023-04-24T05:53:39;7.03;;;4.78;;
79677;SDS011;69145;45.544;10.214;2023-04-24T05:56:04;6.77;;;4.87;;
79677;SDS011;69145;45.544;10.214;2023-04-24T05:58:30;7.50;;;5.35;;
79677;SDS011;69145;45.544;10.214;2023-04-24T06:00:55;7.10;;;5.23;;
79677;SDS011;69145;45.544;10.214;2023-04-24T06:03:22;7.20;;;5.45;;
79677;SDS011;69145;45.544;10.214;2023-04-24T06:05:49;7.20;;;5.17;;
79677;SDS011;69145;45.544;10.214;2023-04-24T06:08:17;8.02;;;5.60;;
79677;SDS011;69145;45.544;10.214;2023-04-24T06:10:43;7.65;;;5.55;;
79677;SDS011;69145;45.544;10.214;2023-04-24T06:13:08;8.07;;;5.80;;
79677;SDS011;69145;45.544;10.214;2023-04-24T06:15:34;7.43;;;5.63;;
79677;SDS011;69145;45.544;10.214;2023-04-24T06:17:59;9.00;;;5.95;;
79677;SDS011;69145;45.544;10.214;2023-04-24T06:20:25;9.20;;;6.38;;
79677;SDS011;69145;45.544;10.214;2023-04-24T06:22:50;9.55;;;6.18;;
79677;SDS011;69145;45.544;10.214;2023-04-24T06:25:16;7.47;;;5.72;;
79677;SDS011;69145;45.544;10.214;2023-04-24T06:27:41;7.82;;;5.47;;
79677;SDS011;69145;45.544;10.214;2023-04-24T06:30:07;9.03;;;6.03;;
79677;SDS011;69145;45.544;10.214;2023-04-24T06:32:33;7.72;;;6.00;;
79677;SDS011;69145;45.544;10.214;2023-04-24T06:34:58;7.55;;;5.43;;
79677;SDS011;69145;45.544;10.214;2023-04-24T06:37:24;8.48;;;5.80;;
79677;SDS011;69145;45.544;10.214;2023-04-24T06:39:49;7.68;;;5.80;;
79677;SDS011;69145;45.544;10.214;2023-04-24T06:42:17;6.93;;;5.33;;
79677;SDS011;69145;45.544;10.214;2023-04-24T06:44:42;10.20;;;5.20;;
79677;SDS011;69145;45.544;10.214;2023-04-24T06:47:08;7.50;;;5.53;;
79677;SDS011;69145;45.544;10.214;2023-04-24T06:49:38;7.47;;;5.55;;
79677;SDS011;69145;45.544;10.214;2023-04-24T06:52:04;8.88;;;5.50;;
79677;SDS011;69145;45.544;10.214;2023-04-24T06:54:30;8.40;;;5.22;;
79677;SDS011;69145;45.544;10.214;2023-04-24T06:56:56;7.75;;;5.10;;
79677;SDS011;69145;45.544;10.214;2023-04-24T06:59:25;7.65;;;5.60;;
79677;SDS011;69145;45.544;10.214;2023-04-24T07:01:50;7.43;;;4.38;;
79677;SDS011;69145;45.544;10.214;2023-04-24T07:04:18;7.53;;;4.82;;
79677;SDS011;69145;45.544;10.214;2023-04-24T07:06:44;7.10;;;4.90;;
79677;SDS011;69145;45.544;10.214;2023-04-24T07:09:11;7.68;;;5.70;;
79677;SDS011;69145;45.544;10.214;2023-04-24T07:11:38;8.57;;;5.32;;
79677;SDS011;69145;45.544;10.214;2023-04-24T07:14:05;7.90;;;5.65;;
79677;SDS011;69145;45.544;10.214;2023-04-24T07:16:31;8.70;;;5.85;;
79677;SDS011;69145;45.544;10.214;2023-04-24T07:18:56;7.93;;;6.28;;
79677;SDS011;69145;45.544;10.214;2023-04-24T07:21:22;7.43;;;5.32;;
79677;SDS011;69145;45.544;10.214;2023-04-24T07:23:47;8.40;;;5.87;;
79677;SDS011;69145;45.544;10.214;2023-04-24T07:26:12;9.23;;;6.63;;
79677;SDS011;69145;45.544;10.214;2023-04-24T07:28:39;8.45;;;5.85;;
79677;SDS011;69145;45.544;10.214;2023-04-24T07:31:05;7.85;;;6.15;;
79677;SDS011;69145;45.544;10.214;2023-04-24T07:33:31;6.47;;;4.72;;
79677;SDS011;69145;45.544;10.214;2023-04-24T07:36:01;7.53;;;5.72;;
79677;SDS011;69145;45.544;10.214;2023-04-24T07:38:26;7.78;;;5.40;;
79677;SDS011;69145;45.544;10.214;2023-04-24T07:43:22;6.43;;;4.78;;
79677;SDS011;69145;45.544;10.214;2023-04-24T07:45:48;6.72;;;4.32;;
79677;SDS011;69145;45.544;10.214;2023-04-24T07:48:17;5.85;;;4.30;;
79677;SDS011;69145;45.544;10.214;2023-04-24T07:53:12;6.07;;;3.97;;
79677;SDS011;69145;45.544;10.214;2023-04-24T07:55:37;5.78;;;4.38;;
79677;SDS011;69145;45.544;10.214;2023-04-24T07:58:06;6.30;;;3.67;;
79677;SDS011;69145;45.544;10.214;2023-04-24T08:00:31;6.60;;;4.05;;
79677;SDS011;69145;45.544;10.214;2023-04-24T08:03:32;5.83;;;3.57;;
79677;SDS011;69145;45.544;10.214;2023-04-24T08:05:49;6.30;;;3.95;;
79677;SDS011;69145;45.544;10.214;2023-04-24T08:08:31;7.28;;;4.35;;
79677;SDS011;69145;45.544;10.214;2023-04-24T08:10:57;6.10;;;4.00;;
79677;SDS011;69145;45.544;10.214;2023-04-24T08:13:22;5.65;;;4.97;;
79677;SDS011;69145;45.544;10.214;2023-04-24T08:15:48;6.28;;;5.38;;
79677;SDS011;69145;45.544;10.214;2023-04-24T08:18:13;5.72;;;4.53;;
79677;SDS011;69145;45.544;10.214;2023-04-24T08:20:41;7.55;;;4.72;;
79677;SDS011;69145;45.544;10.214;2023-04-24T08:23:07;6.45;;;4.00;;
79677;SDS011;69145;45.544;10.214;2023-04-24T08:25:32;6.57;;;4.03;;
79677;SDS011;69145;45.544;10.214;2023-04-24T08:28:00;4.95;;;3.80;;
79677;SDS011;69145;45.544;10.214;2023-04-24T08:30:25;5.97;;;3.90;;
79677;SDS011;69145;45.544;10.214;2023-04-24T08:32:51;5.22;;;3.92;;
79677;SDS011;69145;45.544;10.214;2023-04-24T08:35:16;4.90;;;3.57;;
79677;SDS011;69145;45.544;10.214;2023-04-24T08:37:48;6.43;;;4.20;;
79677;SDS011;69145;45.544;10.214;2023-04-24T08:40:30;6.55;;;3.60;;
79677;SDS011;69145;45.544;10.214;2023-04-24T08:43:00;5.53;;;4.30;;
79677;SDS011;69145;45.544;10.214;2023-04-24T08:45:25;7.20;;;4.75;;
79677;SDS011;69145;45.544;10.214;2023-04-24T08:47:52;6.18;;;4.10;;
79677;SDS011;69145;45.544;10.214;2023-04-24T08:50:19;6.70;;;4.70;;
79677;SDS011;69145;45.544;10.214;2023-04-24T08:52:45;5.45;;;4.05;;
79677;SDS011;69145;45.544;10.214;2023-04-24T08:55:12;5.50;;;3.97;;
79677;SDS011;69145;45.544;10.214;2023-04-24T08:57:37;6.47;;;4.20;;
79677;SDS011;69145;45.544;10.214;2023-04-24T09:00:05;5.95;;;4.70;;
79677;SDS011;69145;45.544;10.214;2023-04-24T09:02:31;7.78;;;4.97;;
79677;SDS011;69145;45.544;10.214;2023-04-24T09:04:59;6.72;;;4.32;;
79677;SDS011;69145;45.544;10.214;2023-04-24T09:07:25;6.22;;;4.43;;
79677;SDS011;69145;45.544;10.214;2023-04-24T09:09:52;7.38;;;4.78;;
79677;SDS011;69145;45.544;10.214;2023-04-24T09:12:18;7.65;;;4.70;;
79677;SDS011;69145;45.544;10.214;2023-04-24T09:14:44;5.78;;;5.05;;
79677;SDS011;69145;45.544;10.214;2023-04-24T09:17:10;7.70;;;4.53;;
79677;SDS011;69145;45.544;10.214;2023-04-24T09:19:55;6.53;;;4.50;;
79677;SDS011;69145;45.544;10.214;2023-04-24T09:22:21;6.03;;;4.82;;
79677;SDS011;69145;45.544;10.214;2023-04-24T09:24:47;6.50;;;4.63;;
79677;SDS011;69145;45.544;10.214;2023-04-24T09:27:12;6.57;;;5.00;;
79677;SDS011;69145;45.544;10.214;2023-04-24T09:29:39;5.93;;;4.82;;
79677;SDS011;69145;45.544;10.214;2023-04-24T09:32:20;6.60;;;4.93;;
79677;SDS011;69145;45.544;10.214;2023-04-24T09:34:47;5.90;;;4.22;;
79677;SDS011;69145;45.544;10.214;2023-04-24T09:37:28;6.25;;;4.65;;
79677;SDS011;69145;45.544;10.214;2023-04-24T09:42:43;6.32;;;4.28;;
79677;SDS011;69145;45.544;10.214;2023-04-24T09:45:16;6.70;;;4.50;;
79677;SDS011;69145;45.544;10.214;2023-04-24T09:47:41;7.55;;;5.30;;
79677;SDS011;69145;45.544;10.214;2023-04-24T09:50:14;8.45;;;4.97;;
79677;SDS011;69145;45.544;10.214;2023-04-24T09:52:41;5.72;;;4.57;;
79677;SDS011;69145;45.544;10.214;2023-04-24T09:55:13;7.32;;;4.72;;
79677;SDS011;69145;45.544;10.214;2023-04-24T10:00:21;7.80;;;5.28;;
79677;SDS011;69145;45.544;10.214;2023-04-24T10:02:53;8.05;;;5.72;;
79677;SDS011;69145;45.544;10.214;2023-04-24T10:05:27;7.45;;;5.63;;
79677;SDS011;69145;45.544;10.214;2023-04-24T10:07:57;7.93;;;5.80;;
79677;SDS011;69145;45.544;10.214;2023-04-24T10:10:27;9.05;;;5.47;;
79677;SDS011;69145;45.544;10.214;2023-04-24T10:12:53;9.02;;;5.60;;
79677;SDS011;69145;45.544;10.214;2023-04-24T10:15:20;7.72;;;5.93;;
79677;SDS011;69145;45.544;10.214;2023-04-24T10:17:49;6.90;;;5.70;;
79677;SDS011;69145;45.544;10.214;2023-04-24T10:20:22;7.13;;;5.85;;
79677;SDS011;69145;45.544;10.214;2023-04-24T10:22:51;7.90;;;5.88;;
79677;SDS011;69145;45.544;10.214;2023-04-24T10:25:18;6.07;;;4.30;;
79677;SDS011;69145;45.544;10.214;2023-04-24T10:27:52;8.50;;;5.65;;
79677;SDS011;69145;45.544;10.214;2023-04-24T10:30:18;7.35;;;5.57;;
79677;SDS011;69145;45.544;10.214;2023-04-24T10:32:45;8.13;;;5.93;;
79677;SDS011;69145;45.544;10.214;2023-04-24T10:35:14;7.68;;;6.03;;
79677;SDS011;69145;45.544;10.214;2023-04-24T10:40:18;7.55;;;5.88;;
79677;SDS011;69145;45.544;10.214;2023-04-24T10:45:21;7.10;;;5.45;;
79677;SDS011;69145;45.544;10.214;2023-04-24T10:48:04;7.35;;;5.32;;
79677;SDS011;69145;45.544;10.214;2023-04-24T10:53:18;8.57;;;5.63;;
79677;SDS011;69145;45.544;10.214;2023-04-24T10:55:48;7.75;;;5.10;;
79677;SDS011;69145;45.544;10.214;2023-04-24T10:58:16;6.85;;;5.20;;
79677;SDS011;69145;45.544;10.214;2023-04-24T11:00:55;7.78;;;4.93;;
79677;SDS011;69145;45.544;10.214;2023-04-24T11:03:23;7.80;;;5.28;;
79677;SDS011;69145;45.544;10.214;2023-04-24T11:06:00;6.68;;;5.15;;
79677;SDS011;69145;45.544;10.214;2023-04-24T11:08:31;7.72;;;4.95;;
79677;SDS011;69145;45.544;10.214;2023-04-24T11:11:09;6.90;;;5.25;;
79677;SDS011;69145;45.544;10.214;2023-04-24T11:16:26;6.00;;;3.90;;
79677;SDS011;69145;45.544;10.214;2023-04-24T11:29:46;7.45;;;4.57;;
79677;SDS011;69145;45.544;10.214;2023-04-24T11:32:30;6.35;;;4.55;;
79677;SDS011;69145;45.544;10.214;2023-04-24T11:35:02;6.75;;;4.47;;
79677;SDS011;69145;45.544;10.214;2023-04-24T11:37:50;7.20;;;4.38;;
79677;SDS011;69145;45.544;10.214;2023-04-24T11:40:19;6.35;;;4.35;;
79677;SDS011;69145;45.544;10.214;2023-04-24T11:42:48;6.70;;;4.72;;
79677;SDS011;69145;45.544;10.214;2023-04-24T11:45:17;5.35;;;3.95;;
79677;SDS011;69145;45.544;10.214;2023-04-24T11:47:47;7.07;;;4.30;;
79677;SDS011;69145;45.544;10.214;2023-04-24T11:50:17;6.70;;;4.60;;
79677;SDS011;69145;45.544;10.214;2023-04-24T11:52:44;6.45;;;4.43;;
79677;SDS011;69145;45.544;10.214;2023-04-24T11:57:39;5.78;;;4.10;;
79677;SDS011;69145;45.544;10.214;2023-04-24T12:00:14;6.28;;;4.50;;
79677;SDS011;69145;45.544;10.214;2023-04-24T12:02:41;6.65;;;4.78;;
79677;SDS011;69145;45.544;10.214;2023-04-24T12:05:06;7.00;;;4.87;;
79677;SDS011;69145;45.544;10.214;2023-04-24T12:07:32;6.00;;;4.95;;
79677;SDS011;69145;45.544;10.214;2023-04-24T12:10:07;7.53;;;4.90;;
79677;SDS011;69145;45.544;10.214;2023-04-24T12:12:34;7.28;;;4.85;;
79677;SDS011;69145;45.544;10.214;2023-04-24T12:15:00;7.03;;;4.30;;
79677;SDS011;69145;45.544;10.214;2023-04-24T12:17:31;6.22;;;4.57;;
79677;SDS011;69145;45.544;10.214;2023-04-24T12:20:02;5.63;;;3.95;;
79677;SDS011;69145;45.544;10.214;2023-04-24T12:22:45;5.63;;;3.78;;
79677;SDS011;69145;45.544;10.214;2023-04-24T12:25:12;6.25;;;4.22;;
79677;SDS011;69145;45.544;10.214;2023-04-24T12:27:38;5.35;;;3.75;;
79677;SDS011;69145;45.544;10.214;2023-04-24T12:30:05;6.30;;;3.97;;
79677;SDS011;69145;45.544;10.214;2023-04-24T12:32:31;5.88;;;3.75;;
79677;SDS011;69145;45.544;10.214;2023-04-24T12:34:56;5.25;;;3.38;;
79677;SDS011;69145;45.544;10.214;2023-04-24T12:37:23;4.78;;;3.45;;
79677;SDS011;69145;45.544;10.214;2023-04-24T12:42:30;4.80;;;3.42;;
79677;SDS011;69145;45.544;10.214;2023-04-24T12:45:00;6.20;;;4.13;;
79677;SDS011;69145;45.544;10.214;2023-04-24T12:47:28;5.68;;;3.42;;
79677;SDS011;69145;45.544;10.214;2023-04-24T12:49:54;5.57;;;3.40;;
79677;SDS011;69145;45.544;10.214;2023-04-24T12:52:20;4.80;;;3.00;;
79677;SDS011;69145;45.544;10.214;2023-04-24T12:57:16;4.85;;;3.20;;
79677;SDS011;69145;45.544;10.214;2023-04-24T12:59:42;4.72;;;3.50;;
79677;SDS011;69145;45.544;10.214;2023-04-24T13:02:08;5.95;;;3.53;;
79677;SDS011;69145;45.544;10.214;2023-04-24T13:04:35;4.93;;;3.08;;
79677;SDS011;69145;45.544;10.214;2023-04-24T13:07:00;4.75;;;3.03;;
79677;SDS011;69145;45.544;10.214;2023-04-24T13:09:25;5.27;;;3.50;;
79677;SDS011;69145;45.544;10.214;2023-04-24T13:11:51;5.65;;;3.67;;
79677;SDS011;69145;45.544;10.214;2023-04-24T13:14:16;6.27;;;4.60;;
79677;SDS011;69145;45.544;10.214;2023-04-24T13:16:41;7.13;;;3.77;;
79677;SDS011;69145;45.544;10.214;2023-04-24T13:19:07;5.93;;;4.37;;
79677;SDS011;69145;45.544;10.214;2023-04-24T13:21:32;5.30;;;3.30;;
79677;SDS011;69145;45.544;10.214;2023-04-24T13:23:57;6.50;;;3.87;;
79677;SDS011;69145;45.544;10.214;2023-04-24T13:26:24;6.80;;;5.20;;
79677;SDS011;69145;45.544;10.214;2023-04-24T13:28:50;6.00;;;4.25;;
79677;SDS011;69145;45.544;10.214;2023-04-24T13:31:15;7.38;;;4.97;;
79677;SDS011;69145;45.544;10.214;2023-04-24T13:33:41;8.23;;;4.78;;
79677;SDS011;69145;45.544;10.214;2023-04-24T13:36:07;6.65;;;4.65;;
79677;SDS011;69145;45.544;10.214;2023-04-24T13:38:32;7.35;;;4.90;;
79677;SDS011;69145;45.544;10.214;2023-04-24T13:40:59;8.88;;;5.13;;
79677;SDS011;69145;45.544;10.214;2023-04-24T13:43:24;7.13;;;5.30;;
79677;SDS011;69145;45.544;10.214;2023-04-24T13:45:50;8.50;;;4.90;;
79677;SDS011;69145;45.544;10.214;2023-04-24T13:48:15;7.78;;;5.65;;
79677;SDS011;69145;45.544;10.214;2023-04-24T13:50:41;7.07;;;5.03;;
79677;SDS011;69145;45.544;10.214;2023-04-24T13:53:07;7.63;;;4.75;;
79677;SDS011;69145;45.544;10.214;2023-04-24T13:55:33;7.30;;;5.43;;
79677;SDS011;69145;45.544;10.214;2023-04-24T13:57:58;8.07;;;5.23;;
79677;SDS011;69145;45.544;10.214;2023-04-24T14:00:23;9.75;;;6.32;;
79677;SDS011;69145;45.544;10.214;2023-04-24T14:02:49;10.57;;;7.10;;
79677;SDS011;69145;45.544;10.214;2023-04-24T14:05:15;9.60;;;6.43;;
79677;SDS011;69145;45.544;10.214;2023-04-24T14:07:40;10.13;;;6.50;;
79677;SDS011;69145;45.544;10.214;2023-04-24T14:10:06;9.63;;;6.40;;
79677;SDS011;69145;45.544;10.214;2023-04-24T14:12:32;10.43;;;6.40;;
79677;SDS011;69145;45.544;10.214;2023-04-24T14:14:57;9.38;;;6.10;;
79677;SDS011;69145;45.544;10.214;2023-04-24T14:17:23;7.63;;;5.32;;
79677;SDS011;69145;45.544;10.214;2023-04-24T14:19:48;9.10;;;5.85;;
79677;SDS011;69145;45.544;10.214;2023-04-24T14:22:20;7.63;;;4.97;;
79677;SDS011;69145;45.544;10.214;2023-04-24T14:24:48;8.35;;;5.68;;
79677;SDS011;69145;45.544;10.214;2023-04-24T14:27:13;8.20;;;5.57;;
79677;SDS011;69145;45.544;10.214;2023-04-24T14:29:39;7.97;;;4.73;;
79677;SDS011;69145;45.544;10.214;2023-04-24T14:32:04;8.38;;;5.63;;
79677;SDS011;69145;45.544;10.214;2023-04-24T14:34:30;5.85;;;4.07;;
79677;SDS011;69145;45.544;10.214;2023-04-24T14:36:55;7.30;;;4.63;;
79677;SDS011;69145;45.544;10.214;2023-04-24T14:39:20;7.43;;;4.30;;
79677;SDS011;69145;45.544;10.214;2023-04-24T14:41:46;6.70;;;4.03;;
79677;SDS011;69145;45.544;10.214;2023-04-24T14:44:11;4.87;;;2.73;;
79677;SDS011;69145;45.544;10.214;2023-04-24T14:46:37;4.72;;;3.03;;
79677;SDS011;69145;45.544;10.214;2023-04-24T14:49:02;4.82;;;3.13;;
79677;SDS011;69145;45.544;10.214;2023-04-24T14:51:27;4.82;;;2.53;;
79677;SDS011;69145;45.544;10.214;2023-04-24T14:53:53;3.58;;;2.00;;
79677;SDS011;69145;45.544;10.214;2023-04-24T14:56:18;4.47;;;2.00;;
79677;SDS011;69145;45.544;10.214;2023-04-24T14:58:43;3.20;;;1.38;;
79677;SDS011;69145;45.544;10.214;2023-04-24T15:01:10;2.50;;;1.23;;
79677;SDS011;69145;45.544;10.214;2023-04-24T15:03:35;3.03;;;1.20;;
79677;SDS011;69145;45.544;10.214;2023-04-24T15:06:01;3.80;;;1.50;;
79677;SDS011;69145;45.544;10.214;2023-04-24T15:08:26;5.25;;;1.23;;
79677;SDS011;69145;45.544;10.214;2023-04-24T15:10:52;4.10;;;1.27;;